createdAt,value
2022-11-05T00:00:35.761Z,7.79
2022-11-05T00:03:28.466Z,7.79
2022-11-05T00:06:15.377Z,7.77
2022-11-05T00:09:02.174Z,7.76
2022-11-05T00:11:49.035Z,7.76
2022-11-05T00:14:36.211Z,7.76
2022-11-05T00:17:04.267Z,7.72
2022-11-05T00:19:32.327Z,7.72
2022-11-05T00:22:19.404Z,7.74
2022-11-05T00:25:06.628Z,7.73
2022-11-05T00:27:34.900Z,7.70
2022-11-05T00:30:03.518Z,7.70
2022-11-05T00:32:33.071Z,7.69
2022-11-05T00:35:01.348Z,7.68
2022-11-05T00:37:30.914Z,7.67
2022-11-05T00:39:59.942Z,7.64
2022-11-05T00:42:46.976Z,7.62
2022-11-05T00:45:15.551Z,7.61
2022-11-05T00:48:02.417Z,7.60
2022-11-05T00:50:31.200Z,7.57
2022-11-05T00:53:00.675Z,7.56
2022-11-05T00:55:38.745Z,7.55
2022-11-05T00:58:10.389Z,7.58
2022-11-05T01:00:41.450Z,7.59
2022-11-05T01:03:14.225Z,7.59
2022-11-05T01:05:49.449Z,7.59
2022-11-05T01:08:20.102Z,7.61
2022-11-05T01:10:55.821Z,7.62
2022-11-05T01:13:27.328Z,7.62
2022-11-05T01:15:56.779Z,7.62
2022-11-05T01:18:25.493Z,7.61
2022-11-05T01:20:54.032Z,7.62
2022-11-05T01:23:22.334Z,7.61
2022-11-05T01:25:50.481Z,7.61
2022-11-05T01:28:19.136Z,7.61
2022-11-05T01:30:55.868Z,7.61
2022-11-05T01:33:25.441Z,7.61
2022-11-05T01:35:53.820Z,7.62
2022-11-05T01:38:21.909Z,7.63
2022-11-05T01:40:50.013Z,7.63
2022-11-05T01:43:21.926Z,7.62
2022-11-05T01:45:54.731Z,7.62
2022-11-05T01:48:23.068Z,7.62
2022-11-05T01:50:59.511Z,7.60
2022-11-05T01:53:34.633Z,7.61
2022-11-05T01:56:24.378Z,7.62
2022-11-05T01:58:54.909Z,7.63
2022-11-05T02:01:24.110Z,7.63
2022-11-05T02:03:55.918Z,7.62
2022-11-05T02:06:26.202Z,7.62
2022-11-05T02:09:11.570Z,7.62
2022-11-05T02:11:40.090Z,7.62
2022-11-05T02:14:08.170Z,7.61
2022-11-05T02:16:50.647Z,7.60
2022-11-05T02:19:37.469Z,7.60
2022-11-05T02:22:42.867Z,7.60
2022-11-05T02:25:35.675Z,7.58
2022-11-05T02:28:09.709Z,7.60
2022-11-05T02:30:49.790Z,7.60
2022-11-05T02:33:23.528Z,7.59
2022-11-05T02:36:24.936Z,7.59
2022-11-05T02:38:52.888Z,7.60
2022-11-05T02:41:29.939Z,7.60
2022-11-05T02:44:26.823Z,7.60
2022-11-05T02:47:19.202Z,7.61
2022-11-05T02:50:07.568Z,7.60
2022-11-05T02:52:59.940Z,7.60
2022-11-05T02:55:45.324Z,7.60
2022-11-05T02:58:13.807Z,7.59
2022-11-05T03:00:53.649Z,7.60
2022-11-05T03:03:39.820Z,7.59
2022-11-05T03:06:07.981Z,7.61
2022-11-05T03:09:09.627Z,7.62
2022-11-05T03:12:04.100Z,7.62
2022-11-05T03:15:09.643Z,7.62
2022-11-05T03:17:58.705Z,7.63
2022-11-05T03:20:57.388Z,7.62
2022-11-05T03:23:33.498Z,7.63
2022-11-05T03:26:19.388Z,7.63
2022-11-05T03:28:56.627Z,7.62
2022-11-05T03:31:26.559Z,7.62
2022-11-05T03:33:56.000Z,7.62
2022-11-05T03:36:28.778Z,7.62
2022-11-05T03:39:02.776Z,7.62
2022-11-05T03:41:33.030Z,7.61
2022-11-05T03:44:05.766Z,7.61
2022-11-05T03:46:49.450Z,7.61
2022-11-05T03:49:28.450Z,7.60
2022-11-05T03:52:06.535Z,7.61
2022-11-05T03:54:35.353Z,7.62
2022-11-05T03:57:11.667Z,7.63
2022-11-05T03:59:45.743Z,7.63
2022-11-05T04:02:18.457Z,7.64
2022-11-05T04:04:46.681Z,7.63
2022-11-05T04:07:33.537Z,7.63
2022-11-05T04:10:20.234Z,7.62
2022-11-05T04:13:06.959Z,7.62
2022-11-05T04:15:54.943Z,7.62
2022-11-05T04:18:23.323Z,7.62
2022-11-05T04:21:10.067Z,7.62
2022-11-05T04:23:56.753Z,7.62
2022-11-05T04:26:24.770Z,7.61
2022-11-05T04:29:12.155Z,7.60
2022-11-05T04:31:40.779Z,7.61
2022-11-05T04:34:08.840Z,7.61
2022-11-05T04:36:37.322Z,7.61
2022-11-05T04:39:05.581Z,7.61
2022-11-05T04:41:33.623Z,7.61
2022-11-05T04:44:02.587Z,7.59
2022-11-05T04:46:30.603Z,7.58
2022-11-05T04:48:58.717Z,7.59
2022-11-05T04:51:27.489Z,7.58
2022-11-05T04:53:56.157Z,7.57
2022-11-05T04:56:25.470Z,7.58
2022-11-05T04:58:53.630Z,7.58
2022-11-05T05:01:24.026Z,7.56
2022-11-05T05:03:54.252Z,7.51
2022-11-05T05:06:22.748Z,7.49
2022-11-05T05:08:51.877Z,7.50
2022-11-05T05:11:22.142Z,7.50
2022-11-05T05:13:50.488Z,7.49
2022-11-05T05:16:22.242Z,7.48
2022-11-05T05:18:51.068Z,7.47
2022-11-05T05:21:39.451Z,7.45
2022-11-05T05:24:18.893Z,7.44
2022-11-05T05:26:50.842Z,7.43
2022-11-05T05:29:20.523Z,7.44
2022-11-05T05:31:49.103Z,7.44
2022-11-05T05:34:17.313Z,7.45
2022-11-05T05:36:45.387Z,7.44
2022-11-05T05:39:15.576Z,7.43
2022-11-05T05:41:43.689Z,7.43
2022-11-05T05:44:11.740Z,7.43
2022-11-05T05:46:40.412Z,7.43
2022-11-05T05:49:12.721Z,7.42
2022-11-05T05:51:41.093Z,7.41
2022-11-05T05:54:10.718Z,7.41
2022-11-05T05:56:43.393Z,7.41
2022-11-05T05:59:12.407Z,7.40
2022-11-05T06:01:41.200Z,7.41
2022-11-05T06:04:10.744Z,7.41
2022-11-05T06:06:39.312Z,7.40
2022-11-05T06:09:07.391Z,7.39
2022-11-05T06:11:35.449Z,7.39
2022-11-05T06:14:03.561Z,7.40
2022-11-05T06:16:36.067Z,7.41
2022-11-05T06:19:04.700Z,7.42
2022-11-05T06:21:33.021Z,7.41
2022-11-05T06:24:03.284Z,7.40
2022-11-05T06:26:31.753Z,7.39
2022-11-05T06:28:59.794Z,7.40
2022-11-05T06:31:27.834Z,7.40
2022-11-05T06:33:55.936Z,7.40
2022-11-05T06:36:24.049Z,7.40
2022-11-05T06:38:52.581Z,7.40
2022-11-05T06:41:20.619Z,7.41
2022-11-05T06:43:48.737Z,7.42
2022-11-05T06:46:17.245Z,7.42
2022-11-05T06:48:45.738Z,7.40
2022-11-05T06:51:13.773Z,7.42
2022-11-05T06:53:42.365Z,7.47
2022-11-05T06:56:10.874Z,7.48
2022-11-05T06:58:39.430Z,7.49
2022-11-05T07:01:10.971Z,7.49
2022-11-05T07:03:39.797Z,7.48
2022-11-05T07:06:08.236Z,7.49
2022-11-05T07:08:38.132Z,7.48
2022-11-05T07:11:06.566Z,7.49
2022-11-05T07:13:34.701Z,7.49
2022-11-05T07:16:10.267Z,7.51
2022-11-05T07:18:45.253Z,7.51
2022-11-05T07:21:13.687Z,7.49
2022-11-05T07:23:41.881Z,7.50
2022-11-05T07:26:09.988Z,7.51
2022-11-05T07:28:38.600Z,7.50
2022-11-05T07:31:06.788Z,7.48
2022-11-05T07:33:36.667Z,7.48
2022-11-05T07:36:05.745Z,7.49
2022-11-05T07:38:33.890Z,7.49
2022-11-05T07:41:02.209Z,7.51
2022-11-05T07:43:33.089Z,7.50
2022-11-05T07:46:01.448Z,7.51
2022-11-05T07:48:29.619Z,7.52
2022-11-05T07:50:57.769Z,7.54
2022-11-05T07:53:25.928Z,7.56
2022-11-05T07:55:54.437Z,7.61
2022-11-05T07:58:22.673Z,7.65
2022-11-05T08:00:50.958Z,7.68
2022-11-05T08:03:20.720Z,7.65
2022-11-05T08:05:49.960Z,7.64
2022-11-05T08:08:20.008Z,7.65
2022-11-05T08:10:48.151Z,7.64
2022-11-05T08:13:16.934Z,7.66
2022-11-05T08:15:45.717Z,7.67
2022-11-05T08:18:16.533Z,7.68
2022-11-05T08:20:46.633Z,7.70
2022-11-05T08:23:15.155Z,7.73
2022-11-05T08:25:43.818Z,7.76
2022-11-05T08:28:13.830Z,7.80
2022-11-05T08:30:42.627Z,7.80
2022-11-05T08:33:13.273Z,7.79
2022-11-05T08:35:41.935Z,7.79
2022-11-05T08:38:14.867Z,7.83
2022-11-05T08:40:44.957Z,7.87
2022-11-05T08:43:14.820Z,7.95
2022-11-05T08:45:43.934Z,8.02
2022-11-05T08:48:18.235Z,8.03
2022-11-05T08:50:48.077Z,8.11
2022-11-05T08:53:17.293Z,8.18
2022-11-05T08:55:47.754Z,8.23
2022-11-05T08:58:17.334Z,8.31
2022-11-05T09:00:48.479Z,8.27
2022-11-05T09:03:17.345Z,8.22
2022-11-05T09:05:45.750Z,8.20
2022-11-05T09:08:16.911Z,8.17
2022-11-05T09:10:46.002Z,8.20
2022-11-05T09:13:18.796Z,8.18
2022-11-05T09:15:50.341Z,8.19
2022-11-05T09:18:19.914Z,8.25
2022-11-05T09:20:48.472Z,8.32
2022-11-05T09:23:17.120Z,8.31
2022-11-05T09:25:45.883Z,8.33
2022-11-05T09:28:17.576Z,8.31
2022-11-05T09:30:48.505Z,8.39
2022-11-05T09:33:18.974Z,8.45
2022-11-05T09:35:47.622Z,8.49
2022-11-05T09:38:16.053Z,8.47
2022-11-05T09:41:05.176Z,8.43
2022-11-05T09:43:44.825Z,8.49
2022-11-05T09:46:25.912Z,8.50
2022-11-05T09:49:04.489Z,8.46
2022-11-05T09:51:34.737Z,8.49
2022-11-05T09:54:04.356Z,8.53
2022-11-05T09:56:37.354Z,8.55
2022-11-05T09:59:18.130Z,8.58
2022-11-05T10:01:47.260Z,8.57
2022-11-05T10:04:26.167Z,8.61
2022-11-05T10:07:00.046Z,8.69
2022-11-05T10:09:52.057Z,8.74
2022-11-05T10:12:45.908Z,8.75
2022-11-05T10:15:20.715Z,8.75
2022-11-05T10:18:12.743Z,8.81
2022-11-05T10:20:40.770Z,8.82
2022-11-05T10:23:18.347Z,8.82
2022-11-05T10:25:51.537Z,8.83
2022-11-05T10:28:23.598Z,8.83
2022-11-05T10:30:58.620Z,8.86
2022-11-05T10:33:46.826Z,8.87
2022-11-05T10:36:33.386Z,8.90
2022-11-05T10:39:09.318Z,8.95
2022-11-05T10:41:59.547Z,9.04
2022-11-05T10:44:27.855Z,9.07
2022-11-05T10:47:26.997Z,9.10
2022-11-05T10:50:01.877Z,9.09
2022-11-05T10:52:57.380Z,9.12
2022-11-05T10:55:29.904Z,9.12
2022-11-05T10:58:17.364Z,9.12
2022-11-05T11:01:01.910Z,9.13
2022-11-05T11:03:42.535Z,9.11
2022-11-05T11:06:20.936Z,9.09
2022-11-05T11:08:51.519Z,9.11
2022-11-05T11:11:38.575Z,9.08
2022-11-05T11:14:12.819Z,9.08
2022-11-05T11:16:46.349Z,9.11
2022-11-05T11:19:21.410Z,9.19
2022-11-05T11:22:12.770Z,9.26
2022-11-05T11:24:54.065Z,9.36
2022-11-05T11:27:29.283Z,9.46
2022-11-05T11:30:02.628Z,9.55
2022-11-05T11:32:37.728Z,9.51
2022-11-05T11:35:08.974Z,9.52
2022-11-05T11:37:42.215Z,9.59
2022-11-05T11:40:22.225Z,9.71
2022-11-05T11:42:57.482Z,9.86
2022-11-05T11:45:35.980Z,9.92
2022-11-05T11:48:07.925Z,9.97
2022-11-05T11:50:35.882Z,10.01
2022-11-05T11:53:16.343Z,9.99
2022-11-05T11:56:03.505Z,10.00
2022-11-05T11:58:44.251Z,9.95
2022-11-05T12:01:37.431Z,10.03
2022-11-05T12:04:08.617Z,10.16
2022-11-05T12:06:45.148Z,10.25
2022-11-05T12:09:20.251Z,10.31
2022-11-05T12:11:57.912Z,10.30
2022-11-05T12:15:04.510Z,10.32
2022-11-05T12:18:03.445Z,10.17
2022-11-05T12:20:34.295Z,10.09
2022-11-05T12:23:20.660Z,10.04
2022-11-05T12:26:01.718Z,9.96
2022-11-05T12:28:57.720Z,9.89
2022-11-05T12:32:05.444Z,9.80
2022-11-05T12:35:02.673Z,9.72
2022-11-05T12:37:34.563Z,9.67
2022-11-05T12:40:27.308Z,9.66
2022-11-05T12:43:11.736Z,9.67
2022-11-05T12:45:55.263Z,9.64
2022-11-05T12:48:42.468Z,9.60
2022-11-05T12:51:16.657Z,9.55
2022-11-05T12:53:52.650Z,9.51
2022-11-05T12:57:10.283Z,9.47
2022-11-05T12:59:52.072Z,9.41
2022-11-05T13:02:32.536Z,9.33
2022-11-05T13:05:35.006Z,9.25
2022-11-05T13:08:09.078Z,9.15
2022-11-05T13:10:44.535Z,9.10
2022-11-05T13:13:35.642Z,9.02
2022-11-05T13:16:16.154Z,8.94
2022-11-05T13:18:49.887Z,8.88
2022-11-05T13:21:23.508Z,8.81
2022-11-05T13:24:17.191Z,8.75
2022-11-05T13:27:23.420Z,8.68
2022-11-05T13:30:18.766Z,8.61
2022-11-05T13:32:54.197Z,8.56
2022-11-05T13:35:40.259Z,8.52
2022-11-05T13:38:37.127Z,8.51
2022-11-05T13:41:31.267Z,8.50
2022-11-05T13:44:26.835Z,8.50
2022-11-05T13:46:54.888Z,8.51
2022-11-05T13:49:54.841Z,8.53
2022-11-05T13:52:51.258Z,8.67
2022-11-05T13:55:31.536Z,8.81
2022-11-05T13:58:11.542Z,8.94
2022-11-05T14:01:07.959Z,8.93
2022-11-05T14:03:37.386Z,8.85
2022-11-05T14:06:10.947Z,9.00
2022-11-05T14:08:45.855Z,9.38
2022-11-05T14:11:25.701Z,9.81
2022-11-05T14:13:59.683Z,10.15
2022-11-05T14:16:53.399Z,10.36
2022-11-05T14:19:30.804Z,10.19
2022-11-05T14:21:59.709Z,9.99
2022-11-05T14:24:42.861Z,10.05
2022-11-05T14:27:13.789Z,10.00
2022-11-05T14:29:49.788Z,9.82
2022-11-05T14:32:18.260Z,9.71
2022-11-05T14:35:04.271Z,9.52
2022-11-05T14:37:40.239Z,9.44
2022-11-05T14:40:29.516Z,9.40
2022-11-05T14:43:02.309Z,9.28
2022-11-05T14:45:37.116Z,9.12
2022-11-05T14:48:24.726Z,8.95
2022-11-05T14:50:52.900Z,8.76
2022-11-05T14:53:32.355Z,8.56
2022-11-05T14:56:09.005Z,8.37
2022-11-05T14:58:41.747Z,8.25
2022-11-05T15:01:33.352Z,8.16
2022-11-05T15:04:17.380Z,8.08
2022-11-05T15:07:03.872Z,8.00
2022-11-05T15:09:42.810Z,7.89
2022-11-05T15:12:18.842Z,7.80
2022-11-05T15:15:01.579Z,7.70
2022-11-05T15:17:45.975Z,7.62
2022-11-05T15:20:18.839Z,7.58
2022-11-05T15:22:52.703Z,7.58
2022-11-05T15:25:30.811Z,7.56
2022-11-05T15:28:06.584Z,7.54
2022-11-05T15:30:34.778Z,7.53
2022-11-05T15:33:20.782Z,7.50
2022-11-05T15:35:49.203Z,7.46
2022-11-05T15:38:31.121Z,7.42
2022-11-05T15:41:15.626Z,7.36
2022-11-05T15:43:47.912Z,7.31
2022-11-05T15:46:25.682Z,7.26
2022-11-05T15:49:17.357Z,7.24
2022-11-05T15:51:45.771Z,7.24
2022-11-05T15:54:36.042Z,7.24
2022-11-05T15:57:04.693Z,7.22
2022-11-05T15:59:32.899Z,7.20
2022-11-05T16:02:21.042Z,7.20
2022-11-05T16:04:49.787Z,7.19
2022-11-05T16:07:18.913Z,7.20
2022-11-05T16:10:05.054Z,7.20
2022-11-05T16:12:37.062Z,7.19
2022-11-05T16:15:08.153Z,7.16
2022-11-05T16:17:49.296Z,7.16
2022-11-05T16:20:35.305Z,7.17
2022-11-05T16:23:23.388Z,7.19
2022-11-05T16:25:51.923Z,7.19
2022-11-05T16:28:28.684Z,7.18
2022-11-05T16:30:58.146Z,7.14
2022-11-05T16:33:33.190Z,7.10
2022-11-05T16:36:01.371Z,7.06
2022-11-05T16:38:29.429Z,7.02
2022-11-05T16:40:59.103Z,6.99
2022-11-05T16:43:27.681Z,6.94
2022-11-05T16:45:59.179Z,6.92
2022-11-05T16:48:27.816Z,6.89
2022-11-05T16:50:56.014Z,6.87
2022-11-05T16:53:24.429Z,6.85
2022-11-05T16:55:52.649Z,6.84
2022-11-05T16:58:26.323Z,6.85
2022-11-05T17:01:12.247Z,6.87
2022-11-05T17:03:40.402Z,6.89
2022-11-05T17:06:08.739Z,6.97
2022-11-05T17:08:36.825Z,7.01
2022-11-05T17:11:06.347Z,7.00
2022-11-05T17:13:34.735Z,7.01
2022-11-05T17:16:02.888Z,7.01
2022-11-05T17:18:31.216Z,7.01
2022-11-05T17:20:59.382Z,7.01
2022-11-05T17:23:28.029Z,7.00
2022-11-05T17:26:02.369Z,6.99
2022-11-05T17:28:31.562Z,6.99
2022-11-05T17:31:01.477Z,7.00
2022-11-05T17:33:32.617Z,7.04
2022-11-05T17:36:05.042Z,7.08
2022-11-05T17:38:33.899Z,7.09
2022-11-05T17:41:02.485Z,7.08
2022-11-05T17:43:30.628Z,7.07
2022-11-05T17:46:04.296Z,7.04
2022-11-05T17:48:33.016Z,7.01
2022-11-05T17:51:01.187Z,6.98
2022-11-05T17:53:29.412Z,6.96
2022-11-05T17:55:58.401Z,6.95
2022-11-05T17:58:26.779Z,6.96
2022-11-05T18:00:55.599Z,6.98
2022-11-05T18:03:23.804Z,6.96
2022-11-05T18:05:55.573Z,6.98
2022-11-05T18:08:24.491Z,7.01
2022-11-05T18:10:53.454Z,7.02
2022-11-05T18:13:22.743Z,7.02
2022-11-05T18:15:52.772Z,7.01
2022-11-05T18:18:21.809Z,6.98
2022-11-05T18:20:50.545Z,6.95
2022-11-05T18:23:18.874Z,6.91
2022-11-05T18:25:47.162Z,6.88
2022-11-05T18:28:18.466Z,6.84
2022-11-05T18:30:46.790Z,6.86
2022-11-05T18:33:15.246Z,6.86
2022-11-05T18:35:45.167Z,6.84
2022-11-05T18:38:13.351Z,6.84
2022-11-05T18:40:41.588Z,6.84
2022-11-05T18:43:10.523Z,6.86
2022-11-05T18:45:39.085Z,6.87
2022-11-05T18:48:07.407Z,6.85
2022-11-05T18:50:36.026Z,6.82
2022-11-05T18:53:04.153Z,6.78
2022-11-05T18:55:32.252Z,6.75
2022-11-05T18:58:00.447Z,6.70
2022-11-05T19:00:28.615Z,6.65
2022-11-05T19:02:58.690Z,6.62
2022-11-05T19:05:29.640Z,6.59
2022-11-05T19:07:58.574Z,6.57
2022-11-05T19:10:27.735Z,6.53
2022-11-05T19:12:56.304Z,6.48
2022-11-05T19:15:27.135Z,6.41
2022-11-05T19:17:55.482Z,6.34
2022-11-05T19:20:24.152Z,6.26
2022-11-05T19:22:53.687Z,6.15
2022-11-05T19:25:22.702Z,6.07
2022-11-05T19:27:51.347Z,5.99
2022-11-05T19:30:19.602Z,5.94
2022-11-05T19:32:48.094Z,5.92
2022-11-05T19:35:16.930Z,5.92
2022-11-05T19:37:45.444Z,5.94
2022-11-05T19:40:14.284Z,5.96
2022-11-05T19:42:44.942Z,5.99
2022-11-05T19:45:43.031Z,5.98
2022-11-05T19:48:02.705Z,5.96
2022-11-05T19:50:31.995Z,5.94
2022-11-05T19:53:02.178Z,5.93
2022-11-05T19:55:33.030Z,5.88
2022-11-05T19:58:02.051Z,5.79
2022-11-05T20:00:32.899Z,5.70
2022-11-05T20:03:02.063Z,5.65
2022-11-05T20:05:30.622Z,5.62
2022-11-05T20:07:59.676Z,5.61
2022-11-05T20:10:28.601Z,5.60
2022-11-05T20:12:57.983Z,5.59
2022-11-05T20:15:26.638Z,5.58
2022-11-05T20:17:56.576Z,5.61
2022-11-05T20:20:26.672Z,5.66
2022-11-05T20:22:55.787Z,5.72
2022-11-05T20:25:26.298Z,5.75
2022-11-05T20:27:58.572Z,5.74
2022-11-05T20:30:28.388Z,5.72
2022-11-05T20:32:58.547Z,5.66
2022-11-05T20:35:28.507Z,5.58
2022-11-05T20:37:58.981Z,5.55
2022-11-05T20:40:27.185Z,5.52
2022-11-05T20:42:56.611Z,5.46
2022-11-05T20:45:24.909Z,5.40
2022-11-05T20:47:54.141Z,5.34
2022-11-05T20:50:24.435Z,5.30
2022-11-05T20:52:53.552Z,5.28
2022-11-05T20:55:23.997Z,5.23
2022-11-05T20:57:53.872Z,5.19
2022-11-05T21:00:27.758Z,5.13
2022-11-05T21:02:59.790Z,5.03
2022-11-05T21:05:34.244Z,4.96
2022-11-05T21:08:06.181Z,4.93
2022-11-05T21:10:36.937Z,4.94
2022-11-05T21:13:10.951Z,4.97
2022-11-05T21:16:21.621Z,5.00
2022-11-05T21:19:26.444Z,5.02
2022-11-05T21:23:10.923Z,5.03
2022-11-05T21:26:18.601Z,5.03
2022-11-05T21:28:51.773Z,5.06
2022-11-05T21:31:21.703Z,5.08
2022-11-05T21:33:55.140Z,5.08
2022-11-05T21:36:35.983Z,5.07
2022-11-05T21:39:09.093Z,5.07
2022-11-05T21:41:43.553Z,5.08
2022-11-05T21:44:11.970Z,5.07
2022-11-05T21:46:40.789Z,5.05
2022-11-05T21:49:09.683Z,4.95
2022-11-05T21:51:56.503Z,4.83
2022-11-05T21:54:43.531Z,4.77
2022-11-05T21:57:36.189Z,4.77
2022-11-05T22:00:09.816Z,4.82
2022-11-05T22:02:39.331Z,4.85
2022-11-05T22:05:08.196Z,4.87
2022-11-05T22:07:38.564Z,4.88
2022-11-05T22:10:14.833Z,4.89
2022-11-05T22:12:45.879Z,4.87
2022-11-05T22:15:15.010Z,4.86
2022-11-05T22:17:47.206Z,4.84
2022-11-05T22:20:16.991Z,4.83
2022-11-05T22:22:45.629Z,4.86
2022-11-05T22:25:14.894Z,4.89
2022-11-05T22:27:44.217Z,4.92
2022-11-05T22:30:13.794Z,4.94
2022-11-05T22:32:43.178Z,4.94
2022-11-05T22:35:11.345Z,4.96
2022-11-05T22:37:39.632Z,4.97
2022-11-05T22:40:08.365Z,4.99
2022-11-05T22:42:42.761Z,5.01
2022-11-05T22:45:12.324Z,5.00
2022-11-05T22:47:44.366Z,4.94
2022-11-05T22:50:15.140Z,4.87
2022-11-05T22:52:46.944Z,4.80
2022-11-05T22:55:18.478Z,4.75
2022-11-05T22:57:50.888Z,4.70
2022-11-05T23:00:19.472Z,4.67
2022-11-05T23:02:48.503Z,4.65
2022-11-05T23:05:16.969Z,4.64
2022-11-05T23:08:06.993Z,4.62
2022-11-05T23:10:58.763Z,4.61
2022-11-05T23:13:29.632Z,4.59
2022-11-05T23:16:16.671Z,4.59
2022-11-05T23:19:03.776Z,4.57
2022-11-05T23:21:50.843Z,4.54
2022-11-05T23:24:19.445Z,4.49
2022-11-05T23:26:50.713Z,4.46
2022-11-05T23:29:24.201Z,4.43
2022-11-05T23:32:12.495Z,4.41
2022-11-05T23:34:44.013Z,4.38
2022-11-05T23:37:31.382Z,4.37
2022-11-05T23:40:02.320Z,4.36
2022-11-05T23:42:49.540Z,4.35
2022-11-05T23:45:40.727Z,4.32
2022-11-05T23:48:18.650Z,4.30
2022-11-05T23:51:09.498Z,4.29
2022-11-05T23:53:42.627Z,4.28
2022-11-05T23:56:14.570Z,4.27
2022-11-05T23:58:43.768Z,4.25
